createdAt,value
2019-05-06T00:00:27.977Z,2.60
2019-05-06T00:02:57.604Z,2.77
2019-05-06T00:05:27.306Z,2.73
2019-05-06T00:07:56.952Z,2.90
2019-05-06T00:10:28.691Z,2.50
2019-05-06T00:12:58.595Z,2.47
2019-05-06T00:15:28.694Z,2.90
2019-05-06T00:17:58.514Z,3.10
2019-05-06T00:20:28.268Z,2.83
2019-05-06T00:23:06.057Z,3.03
2019-05-06T00:25:44.154Z,2.27
2019-05-06T00:28:31.364Z,2.73
2019-05-06T00:31:10.354Z,2.57
2019-05-06T00:33:34.139Z,2.43
2019-05-06T00:36:04.745Z,3.20
2019-05-06T00:38:34.580Z,3.13
2019-05-06T00:41:06.465Z,2.93
2019-05-06T00:43:36.133Z,2.87
2019-05-06T00:46:05.824Z,3.23
2019-05-06T00:48:35.447Z,3.00
2019-05-06T00:51:05.076Z,2.97
2019-05-06T00:53:36.495Z,2.90
2019-05-06T00:56:06.116Z,2.77
2019-05-06T00:58:35.780Z,2.50
2019-05-06T01:01:05.599Z,2.60
2019-05-06T01:03:35.245Z,2.90
2019-05-06T01:06:05.191Z,3.53
2019-05-06T01:08:35.063Z,3.10
2019-05-06T01:11:06.345Z,2.80
2019-05-06T01:13:47.700Z,2.93
2019-05-06T01:16:19.135Z,2.57
2019-05-06T01:18:48.753Z,2.93
2019-05-06T01:21:18.468Z,2.93
2019-05-06T01:23:48.106Z,3.30
2019-05-06T01:26:18.519Z,3.37
2019-05-06T01:28:48.135Z,3.13
2019-05-06T01:31:17.803Z,2.80
2019-05-06T01:33:47.442Z,2.70
2019-05-06T01:36:17.061Z,2.80
2019-05-06T01:39:13.761Z,3.40
2019-05-06T01:41:54.359Z,3.40
2019-05-06T01:44:24.473Z,3.20
2019-05-06T01:46:54.330Z,3.53
2019-05-06T01:49:24.489Z,2.60
2019-05-06T01:51:54.793Z,3.07
2019-05-06T01:54:24.993Z,3.10
2019-05-06T01:56:55.269Z,3.20
2019-05-06T01:59:24.884Z,3.10
2019-05-06T02:02:00.484Z,3.13
2019-05-06T02:04:25.816Z,3.60
2019-05-06T02:06:55.571Z,3.23
2019-05-06T02:09:25.368Z,3.90
2019-05-06T02:11:55.043Z,3.70
2019-05-06T02:14:24.816Z,3.33
2019-05-06T02:16:54.782Z,3.40
2019-05-06T02:19:24.579Z,3.13
2019-05-06T02:22:16.305Z,4.53
2019-05-06T02:25:04.850Z,4.17
2019-05-06T02:27:34.482Z,4.20
2019-05-06T02:30:15.269Z,3.57
2019-05-06T02:33:16.108Z,3.33
2019-05-06T02:36:06.594Z,4.13
2019-05-06T02:38:46.688Z,3.87
2019-05-06T02:41:07.312Z,3.60
2019-05-06T02:43:36.909Z,4.20
2019-05-06T02:46:06.547Z,4.50
2019-05-06T02:48:55.113Z,4.40
2019-05-06T02:51:27.131Z,3.70
2019-05-06T02:53:56.724Z,3.63
2019-05-06T02:56:26.522Z,3.27
2019-05-06T02:58:56.209Z,3.87
2019-05-06T03:01:25.894Z,3.73
2019-05-06T03:03:55.520Z,3.83
2019-05-06T03:06:25.160Z,4.33
2019-05-06T03:08:54.787Z,4.47
2019-05-06T03:11:24.510Z,4.00
2019-05-06T03:13:54.127Z,4.30
2019-05-06T03:16:23.963Z,3.87
2019-05-06T03:18:53.784Z,3.13
2019-05-06T03:21:48.255Z,4.07
2019-05-06T03:24:37.437Z,4.33
2019-05-06T03:27:07.111Z,4.60
2019-05-06T03:29:36.732Z,4.47
2019-05-06T03:32:07.666Z,3.93
2019-05-06T03:34:57.989Z,4.43
2019-05-06T03:37:08.964Z,3.90
2019-05-06T03:39:38.602Z,4.20
2019-05-06T03:42:08.254Z,4.37
2019-05-06T03:44:39.461Z,3.90
2019-05-06T03:47:34.770Z,4.57
2019-05-06T03:50:05.691Z,4.40
2019-05-06T03:52:35.332Z,4.43
2019-05-06T03:55:05.024Z,4.07
2019-05-06T03:57:36.394Z,3.60
2019-05-06T04:00:06.910Z,3.43
2019-05-06T04:02:39.614Z,3.60
2019-05-06T04:05:08.268Z,3.57
2019-05-06T04:07:38.073Z,4.03
2019-05-06T04:10:08.163Z,3.70
2019-05-06T04:12:38.748Z,3.70
2019-05-06T04:15:09.725Z,4.00
2019-05-06T04:17:53.329Z,3.57
2019-05-06T04:20:38.088Z,4.20
2019-05-06T04:23:26.625Z,3.63
2019-05-06T04:26:03.991Z,3.80
2019-05-06T04:28:35.020Z,4.17
2019-05-06T04:31:05.842Z,4.30
2019-05-06T04:33:35.757Z,4.00
2019-05-06T04:36:05.691Z,3.50
2019-05-06T04:38:35.407Z,3.87
2019-05-06T04:41:05.075Z,3.63
2019-05-06T04:43:35.206Z,3.67
2019-05-06T04:46:05.045Z,4.00
2019-05-06T04:48:34.649Z,3.83
2019-05-06T04:51:04.417Z,4.10
2019-05-06T04:53:34.272Z,3.80
2019-05-06T04:56:04.379Z,3.80
2019-05-06T04:58:34.578Z,3.27
2019-05-06T05:01:04.488Z,3.83
2019-05-06T05:03:34.276Z,3.50
2019-05-06T05:06:05.762Z,3.10
2019-05-06T05:08:38.568Z,2.70
2019-05-06T05:11:22.654Z,3.77
2019-05-06T05:14:14.405Z,2.70
2019-05-06T05:16:52.837Z,3.03
2019-05-06T05:19:23.096Z,2.90
2019-05-06T05:21:56.625Z,2.97
2019-05-06T05:24:26.292Z,3.47
2019-05-06T05:26:56.060Z,2.90
2019-05-06T05:29:25.818Z,2.70
2019-05-06T05:31:55.425Z,2.70
2019-05-06T05:34:37.075Z,2.60
2019-05-06T05:36:56.825Z,2.60
2019-05-06T05:39:26.547Z,2.47
2019-05-06T05:41:59.354Z,2.73
2019-05-06T05:44:32.440Z,2.67
2019-05-06T05:47:03.406Z,2.80
2019-05-06T05:49:52.876Z,4.37
2019-05-06T05:52:22.470Z,2.57
2019-05-06T05:54:55.394Z,2.10
2019-05-06T05:57:23.723Z,2.47
2019-05-06T05:59:53.405Z,2.23
2019-05-06T06:02:23.117Z,2.20
2019-05-06T06:04:57.227Z,2.33
2019-05-06T06:07:24.156Z,2.50
2019-05-06T06:10:12.902Z,6.70
2019-05-06T06:12:42.905Z,2.60
2019-05-06T06:15:24.676Z,2.30
2019-05-06T06:18:19.257Z,2.20
2019-05-06T06:21:20.725Z,2.10
2019-05-06T06:23:43.692Z,2.40
2019-05-06T06:26:13.376Z,2.43
2019-05-06T06:28:42.996Z,3.10
2019-05-06T06:31:18.436Z,2.03
2019-05-06T06:33:49.503Z,2.13
2019-05-06T06:36:32.599Z,2.57
2019-05-06T06:39:12.504Z,2.23
2019-05-06T06:41:42.427Z,2.50
2019-05-06T06:44:15.500Z,3.07
2019-05-06T06:46:45.119Z,2.43
2019-05-06T06:49:14.784Z,2.20
2019-05-06T06:51:44.400Z,2.30
2019-05-06T06:54:14.197Z,2.20
2019-05-06T06:57:03.178Z,2.37
2019-05-06T06:59:31.868Z,2.23
2019-05-06T07:02:19.434Z,2.10
2019-05-06T07:05:02.475Z,2.83
2019-05-06T07:07:41.427Z,3.10
2019-05-06T07:10:04.535Z,2.27
2019-05-06T07:12:34.131Z,2.13
2019-05-06T07:15:03.888Z,3.07
2019-05-06T07:17:33.552Z,2.40
2019-05-06T07:20:06.932Z,2.20
2019-05-06T07:22:37.232Z,2.47
2019-05-06T07:25:08.245Z,2.50
2019-05-06T07:27:37.907Z,2.73
2019-05-06T07:30:08.319Z,2.53
2019-05-06T07:32:38.101Z,2.60
2019-05-06T07:35:07.976Z,2.40
2019-05-06T07:37:37.628Z,2.80
2019-05-06T07:40:08.725Z,2.40
2019-05-06T07:42:43.532Z,2.67
2019-05-06T07:45:32.899Z,2.63
2019-05-06T07:48:05.657Z,2.63
2019-05-06T07:50:35.340Z,3.20
2019-05-06T07:53:08.687Z,2.23
2019-05-06T07:55:38.924Z,2.23
2019-05-06T07:58:08.559Z,2.20
2019-05-06T08:00:38.297Z,2.60
2019-05-06T08:03:07.940Z,2.20
2019-05-06T08:05:37.548Z,2.50
2019-05-06T08:08:08.559Z,1.70
2019-05-06T08:10:38.156Z,1.87
2019-05-06T08:13:07.860Z,2.10
2019-05-06T08:15:37.509Z,2.13
2019-05-06T08:18:07.139Z,2.00
2019-05-06T08:20:39.812Z,1.77
2019-05-06T08:23:24.647Z,2.30
2019-05-06T08:26:08.352Z,2.20
2019-05-06T08:28:37.493Z,2.20
2019-05-06T08:30:57.151Z,2.30
2019-05-06T08:33:27.747Z,1.90
2019-05-06T08:36:10.514Z,2.00
2019-05-06T08:38:29.157Z,1.67
2019-05-06T08:40:58.875Z,2.00
2019-05-06T08:43:28.599Z,2.47
2019-05-06T08:45:58.223Z,2.40
2019-05-06T08:48:27.883Z,2.00
2019-05-06T08:51:13.086Z,1.73
2019-05-06T08:53:50.284Z,2.17
2019-05-06T08:56:22.090Z,1.70
2019-05-06T08:58:52.751Z,2.43
2019-05-06T09:01:38.273Z,2.83
2019-05-06T09:04:12.385Z,1.87
2019-05-06T09:06:39.447Z,1.77
2019-05-06T09:09:10.128Z,2.13
2019-05-06T09:11:39.986Z,2.13
2019-05-06T09:14:10.920Z,1.93
2019-05-06T09:16:43.819Z,2.40
2019-05-06T09:19:13.050Z,2.20
2019-05-06T09:21:46.040Z,2.10
2019-05-06T09:24:14.173Z,2.00
2019-05-06T09:27:04.674Z,1.90
2019-05-06T09:29:43.084Z,1.60
2019-05-06T09:32:19.295Z,2.30
2019-05-06T09:34:54.119Z,2.70
2019-05-06T09:37:24.335Z,2.20
2019-05-06T09:39:54.109Z,2.70
2019-05-06T09:42:24.680Z,2.87
2019-05-06T09:44:54.596Z,2.30
2019-05-06T09:47:32.994Z,2.13
2019-05-06T09:50:02.980Z,2.30
2019-05-06T09:52:33.284Z,2.90
2019-05-06T09:55:22.174Z,2.00
2019-05-06T09:58:07.831Z,2.47
2019-05-06T10:00:42.870Z,2.30
2019-05-06T10:03:12.851Z,2.33
2019-05-06T10:05:42.622Z,2.60
2019-05-06T10:08:12.637Z,2.40
2019-05-06T10:10:53.714Z,2.50
2019-05-06T10:13:13.698Z,2.50
2019-05-06T10:15:43.418Z,2.47
2019-05-06T10:18:13.559Z,1.80
2019-05-06T10:20:47.119Z,2.53
2019-05-06T10:23:16.858Z,2.03
2019-05-06T10:25:46.667Z,2.97
2019-05-06T10:28:35.383Z,2.90
2019-05-06T10:31:07.288Z,2.50
2019-05-06T10:33:55.843Z,2.50
2019-05-06T10:36:27.292Z,2.50
2019-05-06T10:39:02.298Z,2.60
2019-05-06T10:41:35.490Z,2.37
2019-05-06T10:44:22.650Z,2.13
2019-05-06T10:46:52.903Z,2.07
2019-05-06T10:49:22.861Z,2.47
2019-05-06T10:52:08.557Z,2.77
2019-05-06T10:54:38.184Z,2.47
2019-05-06T10:57:16.736Z,2.40
2019-05-06T10:59:46.504Z,2.00
2019-05-06T11:02:24.738Z,2.37
2019-05-06T11:04:54.417Z,2.27
2019-05-06T11:07:31.328Z,2.47
2019-05-06T11:09:55.460Z,1.93
2019-05-06T11:12:25.126Z,2.13
2019-05-06T11:14:55.775Z,1.87
2019-05-06T11:17:25.648Z,2.60
2019-05-06T11:19:55.297Z,2.30
2019-05-06T11:22:24.965Z,2.07
2019-05-06T11:24:54.580Z,2.10
2019-05-06T11:27:31.298Z,2.27
2019-05-06T11:29:57.060Z,2.20
2019-05-06T11:32:36.916Z,2.77
2019-05-06T11:35:34.548Z,2.87
2019-05-06T11:38:12.031Z,2.33
2019-05-06T11:40:42.119Z,2.83
2019-05-06T11:43:12.014Z,1.93
2019-05-06T11:45:42.717Z,2.20
2019-05-06T11:48:14.547Z,2.20
2019-05-06T11:50:45.316Z,3.03
2019-05-06T11:53:14.994Z,2.27
2019-05-06T11:55:44.651Z,1.90
2019-05-06T11:58:31.788Z,2.17
2019-05-06T12:01:05.009Z,2.77
2019-05-06T12:03:34.627Z,1.97
2019-05-06T12:06:04.271Z,2.20
2019-05-06T12:08:34.020Z,1.87
2019-05-06T12:11:03.668Z,1.73
2019-05-06T12:13:33.847Z,2.40
2019-05-06T12:16:03.579Z,2.27
2019-05-06T12:18:33.291Z,2.30
2019-05-06T12:21:09.066Z,2.60
2019-05-06T12:23:35.311Z,1.70
2019-05-06T12:26:05.636Z,2.30
2019-05-06T12:28:35.253Z,1.63
2019-05-06T12:31:04.888Z,2.03
2019-05-06T12:33:42.690Z,1.47
2019-05-06T12:36:26.127Z,1.83
2019-05-06T12:39:16.206Z,1.83
2019-05-06T12:42:09.880Z,2.20
2019-05-06T12:44:41.122Z,1.70
2019-05-06T12:47:33.056Z,2.20
2019-05-06T12:50:02.961Z,2.23
2019-05-06T12:52:32.737Z,2.23
2019-05-06T12:55:16.858Z,1.80
2019-05-06T12:57:34.543Z,2.13
2019-05-06T13:00:05.104Z,2.20
2019-05-06T13:02:34.806Z,1.80
2019-05-06T13:05:04.893Z,2.40
2019-05-06T13:07:42.046Z,2.50
2019-05-06T13:10:13.103Z,1.80
2019-05-06T13:12:45.317Z,2.17
2019-05-06T13:15:15.024Z,2.00
2019-05-06T13:17:44.666Z,2.73
2019-05-06T13:20:14.924Z,2.90
2019-05-06T13:22:59.925Z,2.30
2019-05-06T13:25:29.568Z,3.10
2019-05-06T13:27:59.184Z,2.80
2019-05-06T13:30:48.064Z,2.50
2019-05-06T13:33:30.253Z,2.47
2019-05-06T13:36:00.100Z,2.60
2019-05-06T13:38:31.967Z,2.40
2019-05-06T13:41:03.098Z,2.60
2019-05-06T13:43:57.314Z,2.57
2019-05-06T13:46:29.649Z,3.00
2019-05-06T13:49:17.082Z,2.73
2019-05-06T13:51:52.596Z,3.20
2019-05-06T13:54:22.518Z,2.63
2019-05-06T13:56:52.362Z,3.00
2019-05-06T13:59:22.990Z,2.47
2019-05-06T14:02:11.464Z,2.93
2019-05-06T14:04:44.241Z,2.23
2019-05-06T14:07:13.154Z,2.13
2019-05-06T14:09:43.620Z,2.50
2019-05-06T14:12:13.488Z,2.47
2019-05-06T14:14:43.392Z,2.57
2019-05-06T14:17:13.118Z,2.63
2019-05-06T14:19:43.143Z,2.03
2019-05-06T14:22:12.874Z,2.30
2019-05-06T14:24:47.248Z,2.37
2019-05-06T14:27:18.573Z,2.40
2019-05-06T14:29:54.587Z,2.93
2019-05-06T14:32:24.368Z,2.53
2019-05-06T14:34:54.009Z,2.13
2019-05-06T14:37:23.645Z,2.40
2019-05-06T14:39:59.136Z,2.47
2019-05-06T14:42:26.256Z,2.43
2019-05-06T14:44:55.884Z,2.40
2019-05-06T14:47:32.572Z,3.10
2019-05-06T14:50:03.872Z,2.77
2019-05-06T14:52:33.508Z,2.53
2019-05-06T14:55:12.543Z,1.77
2019-05-06T14:57:42.848Z,2.00
2019-05-06T15:00:15.466Z,2.17
2019-05-06T15:02:45.096Z,2.57
2019-05-06T15:05:14.905Z,2.80
2019-05-06T15:07:44.614Z,3.57
2019-05-06T15:10:22.152Z,3.07
2019-05-06T15:12:46.204Z,2.90
2019-05-06T15:15:15.922Z,2.97
2019-05-06T15:17:45.630Z,3.50
2019-05-06T15:20:15.368Z,3.23
2019-05-06T15:22:45.079Z,3.77
2019-05-06T15:25:14.812Z,3.27
2019-05-06T15:27:44.440Z,3.20
2019-05-06T15:30:20.208Z,3.77
2019-05-06T15:32:49.836Z,3.60
2019-05-06T15:35:44.574Z,3.70
2019-05-06T15:38:19.043Z,3.77
2019-05-06T15:40:48.673Z,3.47
2019-05-06T15:43:18.416Z,2.73
2019-05-06T15:45:48.058Z,3.57
2019-05-06T15:48:17.690Z,4.17
2019-05-06T15:50:47.350Z,3.23
2019-05-06T15:53:16.988Z,4.43
2019-05-06T15:55:46.633Z,3.63
2019-05-06T15:58:16.272Z,2.47
2019-05-06T16:00:45.929Z,4.27
2019-05-06T16:03:15.572Z,2.53
2019-05-06T16:05:45.326Z,2.63
2019-05-06T16:08:15.041Z,2.20
2019-05-06T16:10:52.299Z,2.10
2019-05-06T16:13:16.204Z,1.80
2019-05-06T16:15:45.977Z,1.63
2019-05-06T16:18:15.700Z,1.37
2019-05-06T16:20:45.344Z,1.27
2019-05-06T16:23:26.729Z,1.30
2019-05-06T16:25:56.374Z,1.30
2019-05-06T16:28:26.093Z,1.60
2019-05-06T16:30:55.765Z,1.40
2019-05-06T16:33:25.420Z,1.37
2019-05-06T16:35:55.063Z,1.70
2019-05-06T16:38:24.712Z,1.80
2019-05-06T16:41:09.077Z,2.10
2019-05-06T16:43:25.715Z,1.47
2019-05-06T16:45:55.384Z,1.73
2019-05-06T16:48:25.205Z,1.20
2019-05-06T16:50:56.101Z,1.10
2019-05-06T16:53:26.462Z,1.10
2019-05-06T16:56:02.240Z,1.40
2019-05-06T16:58:34.824Z,1.93
2019-05-06T17:01:04.556Z,1.17
2019-05-06T17:03:56.176Z,1.63
2019-05-06T17:06:28.552Z,1.00
2019-05-06T17:08:58.381Z,1.23
2019-05-06T17:11:33.427Z,1.37
2019-05-06T17:13:59.409Z,1.47
2019-05-06T17:16:29.104Z,1.73
2019-05-06T17:18:58.768Z,1.20
2019-05-06T17:21:32.671Z,1.40
2019-05-06T17:24:02.275Z,1.27
2019-05-06T17:26:33.830Z,1.40
2019-05-06T17:29:25.505Z,1.47
2019-05-06T17:32:04.150Z,0.90
2019-05-06T17:34:36.753Z,1.07
2019-05-06T17:37:24.508Z,1.27
2019-05-06T17:40:06.989Z,1.87
2019-05-06T17:42:25.555Z,2.13
2019-05-06T17:44:55.178Z,3.87
2019-05-06T17:47:32.320Z,2.63
2019-05-06T17:50:02.791Z,3.03
2019-05-06T17:52:33.458Z,1.60
2019-05-06T17:55:03.202Z,2.43
2019-05-06T17:57:33.238Z,2.20
2019-05-06T18:00:03.344Z,3.33
2019-05-06T18:02:33.267Z,2.17
2019-05-06T18:05:03.094Z,2.37
2019-05-06T18:07:33.150Z,2.60
2019-05-06T18:10:03.154Z,2.70
2019-05-06T18:12:33.291Z,3.33
2019-05-06T18:15:03.078Z,2.50
2019-05-06T18:17:33.515Z,2.53
2019-05-06T18:20:04.082Z,2.57
2019-05-06T18:22:33.702Z,2.73
2019-05-06T18:25:03.456Z,2.37
2019-05-06T18:27:34.536Z,2.50
2019-05-06T18:30:15.934Z,2.60
2019-05-06T18:32:35.928Z,2.40
2019-05-06T18:35:09.161Z,2.50
2019-05-06T18:37:38.805Z,2.40
2019-05-06T18:40:08.649Z,2.57
2019-05-06T18:42:38.845Z,2.47
2019-05-06T18:45:12.357Z,2.90
2019-05-06T18:47:42.321Z,2.97
2019-05-06T18:50:12.576Z,2.47
2019-05-06T18:52:43.088Z,2.70
2019-05-06T18:55:12.948Z,2.00
2019-05-06T18:57:42.564Z,2.23
2019-05-06T19:00:12.903Z,2.50
2019-05-06T19:02:42.664Z,2.40
2019-05-06T19:05:27.087Z,3.27
2019-05-06T19:07:56.894Z,2.57
2019-05-06T19:10:32.732Z,2.90
2019-05-06T19:13:02.135Z,3.07
2019-05-06T19:15:33.184Z,2.20
2019-05-06T19:18:02.907Z,2.83
2019-05-06T19:20:33.845Z,3.00
2019-05-06T19:23:04.164Z,2.33
2019-05-06T19:25:34.751Z,2.70
2019-05-06T19:28:04.813Z,2.80
2019-05-06T19:30:34.441Z,3.47
2019-05-06T19:33:06.887Z,3.27
2019-05-06T19:35:37.100Z,2.93
2019-05-06T19:38:07.371Z,2.70
2019-05-06T19:40:36.983Z,3.20
2019-05-06T19:43:06.752Z,2.43
2019-05-06T19:45:36.484Z,2.47
2019-05-06T19:48:06.289Z,2.70
2019-05-06T19:50:36.859Z,1.80
2019-05-06T19:53:06.685Z,2.37
2019-05-06T19:55:36.336Z,2.50
2019-05-06T19:58:06.686Z,2.50
2019-05-06T20:00:36.312Z,2.43
2019-05-06T20:03:05.989Z,2.40
2019-05-06T20:05:54.590Z,2.17
2019-05-06T20:08:34.084Z,2.17
2019-05-06T20:11:22.675Z,2.70
2019-05-06T20:13:52.619Z,1.80
2019-05-06T20:16:23.016Z,1.93
2019-05-06T20:18:52.743Z,1.90
2019-05-06T20:21:23.065Z,2.20
2019-05-06T20:23:52.834Z,2.10
2019-05-06T20:26:22.496Z,1.80
2019-05-06T20:28:52.677Z,1.97
2019-05-06T20:31:22.740Z,2.17
2019-05-06T20:33:52.944Z,2.50
2019-05-06T20:36:22.787Z,2.40
2019-05-06T20:38:52.420Z,2.30
2019-05-06T20:41:22.273Z,2.10
2019-05-06T20:43:51.952Z,2.27
2019-05-06T20:46:22.043Z,2.43
2019-05-06T20:48:52.970Z,2.00
2019-05-06T20:51:22.820Z,2.10
2019-05-06T20:53:52.420Z,2.03
2019-05-06T20:56:22.163Z,2.60
2019-05-06T20:58:52.841Z,1.83
2019-05-06T21:01:22.504Z,2.67
2019-05-06T21:03:52.888Z,1.97
2019-05-06T21:06:22.740Z,2.20
2019-05-06T21:08:53.010Z,2.03
2019-05-06T21:11:28.806Z,2.33
2019-05-06T21:13:54.138Z,1.80
2019-05-06T21:16:23.746Z,2.07
2019-05-06T21:18:53.448Z,1.80
2019-05-06T21:21:23.376Z,2.07
2019-05-06T21:23:53.573Z,2.00
2019-05-06T21:26:23.496Z,2.07
2019-05-06T21:28:53.520Z,1.87
2019-05-06T21:31:23.406Z,2.37
2019-05-06T21:33:53.544Z,1.70
2019-05-06T21:36:23.340Z,2.20
2019-05-06T21:38:52.972Z,1.80
2019-05-06T21:41:22.656Z,1.60
2019-05-06T21:43:52.268Z,1.47
2019-05-06T21:46:21.891Z,1.27
2019-05-06T21:48:52.931Z,1.50
2019-05-06T21:51:23.355Z,1.43
2019-05-06T21:53:53.291Z,1.40
2019-05-06T21:56:22.947Z,1.33
2019-05-06T21:58:52.685Z,1.00
2019-05-06T22:01:22.804Z,1.03
2019-05-06T22:03:53.176Z,1.17
2019-05-06T22:06:22.773Z,1.40
2019-05-06T22:08:52.392Z,1.07
2019-05-06T22:11:24.342Z,1.10
2019-05-06T22:14:00.880Z,1.03
2019-05-06T22:16:24.844Z,1.10
2019-05-06T22:18:54.892Z,0.97
2019-05-06T22:21:25.377Z,1.00
2019-05-06T22:24:04.581Z,0.93
2019-05-06T22:26:33.873Z,1.00
2019-05-06T22:29:03.521Z,1.20
2019-05-06T22:31:33.315Z,1.03
2019-05-06T22:34:03.057Z,0.70
2019-05-06T22:36:32.754Z,0.60
2019-05-06T22:39:02.644Z,1.00
2019-05-06T22:41:32.733Z,1.00
2019-05-06T22:44:13.269Z,0.60
2019-05-06T22:46:34.184Z,0.80
2019-05-06T22:49:03.880Z,1.20
2019-05-06T22:51:33.675Z,1.07
2019-05-06T22:54:03.397Z,1.17
2019-05-06T22:56:32.953Z,1.00
2019-05-06T22:59:03.456Z,1.20
2019-05-06T23:01:54.631Z,0.83
2019-05-06T23:04:26.191Z,1.10
2019-05-06T23:06:55.855Z,1.43
2019-05-06T23:09:25.404Z,0.90
2019-05-06T23:11:55.084Z,1.00
2019-05-06T23:14:31.182Z,1.07
2019-05-06T23:16:56.096Z,1.00
2019-05-06T23:19:25.723Z,1.10
2019-05-06T23:21:55.360Z,1.00
2019-05-06T23:24:24.974Z,0.80
2019-05-06T23:26:54.895Z,0.90
2019-05-06T23:29:24.646Z,0.90
2019-05-06T23:31:54.253Z,0.70
2019-05-06T23:34:23.867Z,0.70
2019-05-06T23:37:27.066Z,0.80
2019-05-06T23:40:42.493Z,0.97
2019-05-06T23:43:46.995Z,1.20
2019-05-06T23:46:52.764Z,1.10
2019-05-06T23:49:58.208Z,0.77
2019-05-06T23:53:03.735Z,1.00
2019-05-06T23:56:09.443Z,0.90
2019-05-06T23:58:39.052Z,0.90
